Time;durP1;ratioP1;P1;durP2;ratioP2;P2;SDS_P1;SDS_P2;PMS_P1;PMS_P2;Temp;Humidity;BMP_temperature;BMP_pressure;BME280_temperature;BME280_humidity;BME280_pressure;Samples;Min_cycle;Max_cycle;Signal;HPM_P1;HPM_P2
2023/04/26 00:02:18;;;;;;;4.88;0.90;;;;;;;4.14;100.00;101364.53;6298251;28;20051;-79
2023/04/26 00:05:19;;;;;;;2.75;1.10;;;;;;;4.13;100.00;101356.75;6291595;28;20110;-78
2023/04/26 00:08:22;;;;;;;9.88;1.33;;;;;;;4.06;100.00;101361.19;6282691;28;20363;-79
2023/04/26 00:11:23;;;;;;;3.70;1.25;;;;;;;4.14;100.00;101361.94;6291586;28;20048;-79
2023/04/26 00:14:24;;;;;;;3.42;1.27;;;;;;;4.05;100.00;101357.75;6299771;28;20334;-77
2023/04/26 00:17:26;;;;;;;4.47;1.40;;;;;;;4.11;100.00;101355.94;6290698;28;20480;-77
2023/04/26 00:20:27;;;;;;;4.35;1.15;;;;;;;4.11;100.00;101358.53;6274735;28;20049;-77
2023/04/26 00:23:30;;;;;;;1.80;0.95;;;;;;;4.18;100.00;101355.81;6283776;28;20056;-77
2023/04/26 00:26:33;;;;;;;1.35;0.85;;;;;;;4.06;100.00;101351.66;6299223;28;20049;-77
2023/04/26 00:29:34;;;;;;;2.90;1.00;;;;;;;3.95;100.00;101363.09;6296400;28;20053;-77
2023/04/26 00:32:35;;;;;;;2.25;1.00;;;;;;;3.99;100.00;101364.78;6297907;28;20043;-78
2023/04/26 00:35:37;;;;;;;5.22;1.45;;;;;;;3.84;100.00;101365.03;6299307;28;20060;-77
2023/04/26 00:38:40;;;;;;;3.55;1.00;;;;;;;3.85;100.00;101362.41;6299082;28;20135;-77
2023/04/26 00:41:41;;;;;;;3.90;1.20;;;;;;;3.75;100.00;101366.03;6291245;28;20052;-77
2023/04/26 00:44:43;;;;;;;4.05;1.17;;;;;;;3.75;100.00;101366.03;6296115;28;20064;-77
2023/04/26 00:47:44;;;;;;;5.47;1.10;;;;;;;3.66;100.00;101368.75;6294147;28;20048;-78
2023/04/26 00:50:47;;;;;;;1.90;1.00;;;;;;;3.75;100.00;101366.03;6299082;28;20044;-77
2023/04/26 00:53:49;;;;;;;10.18;1.60;;;;;;;3.91;100.00;101369.25;6299081;28;20045;-79
2023/04/26 00:56:52;;;;;;;4.25;1.30;;;;;;;3.72;100.00;101368.66;6290823;28;20053;-77
2023/04/26 00:59:53;;;;;;;9.30;1.48;;;;;;;3.72;100.00;101369.50;6301255;28;20055;-77
2023/04/26 01:02:55;;;;;;;5.45;1.00;;;;;;;3.64;100.00;101370.53;6303538;28;20341;-77
2023/04/26 01:05:58;;;;;;;1.77;1.23;;;;;;;3.52;100.00;101374.16;6281983;28;20132;-79
2023/04/26 01:09:03;;;;;;;9.18;1.60;;;;;;;3.46;100.00;101369.06;6278664;28;20060;-78
2023/04/26 01:12:05;;;;;;;9.68;1.27;;;;;;;3.56;100.00;101374.09;6278491;28;20099;-77
2023/04/26 01:15:08;;;;;;;3.65;1.00;;;;;;;3.56;100.00;101370.66;6301317;28;20056;-77
2023/04/26 01:18:10;;;;;;;5.28;0.98;;;;;;;3.68;100.00;101373.06;6303378;28;20182;-78
2023/04/26 01:21:12;;;;;;;7.00;1.30;;;;;;;3.65;100.00;101372.25;6303645;28;20049;-77
2023/04/26 01:24:15;;;;;;;2.85;1.23;;;;;;;3.55;100.00;101374.97;6303268;28;20053;-78
2023/04/26 01:27:17;;;;;;;6.90;1.35;;;;;;;3.63;100.00;101374.00;6303353;28;20051;-78
2023/04/26 01:30:18;;;;;;;4.60;1.52;;;;;;;3.55;100.00;101385.38;6297501;28;20051;-78
2023/04/26 01:33:19;;;;;;;5.28;1.25;;;;;;;3.44;100.00;101387.25;6303189;28;20048;-78
2023/04/26 01:36:21;;;;;;;3.35;1.63;;;;;;;3.46;100.00;101372.50;6303172;28;20135;-77
2023/04/26 01:39:23;;;;;;;3.85;1.42;;;;;;;3.50;100.00;101384.59;6277424;28;20456;-78
2023/04/26 01:42:25;;;;;;;12.48;1.83;;;;;;;3.59;100.00;101373.22;6295040;28;20048;-78
2023/04/26 01:45:27;;;;;;;2.63;1.10;;;;;;;3.42;100.00;101373.44;6302508;28;20131;-78
2023/04/26 01:48:29;;;;;;;8.13;1.50;;;;;;;3.37;100.00;101380.44;6302293;28;20056;-78
2023/04/26 01:51:31;;;;;;;3.72;2.08;;;;;;;3.28;100.00;101384.00;6301497;28;20052;-77
2023/04/26 01:54:34;;;;;;;4.78;1.10;;;;;;;3.30;100.00;101387.44;6277833;28;20081;-77
2023/04/26 01:57:35;;;;;;;2.58;0.90;;;;;;;3.38;100.00;101384.75;6277231;28;20057;-77
2023/04/26 02:00:37;;;;;;;8.05;1.30;;;;;;;3.34;100.00;101377.88;6287042;28;20139;-77
2023/04/26 02:03:38;;;;;;;4.55;1.00;;;;;;;3.32;100.00;101379.63;6294020;28;20056;-78
2023/04/26 02:06:40;;;;;;;2.22;1.33;;;;;;;3.41;100.00;101383.84;6277631;28;20057;-78
2023/04/26 02:09:45;;;;;;;2.58;1.10;;;;;;;3.27;100.00;101382.31;6276192;28;20048;-77
2023/04/26 02:12:46;;;;;;;5.38;1.20;;;;;;;3.25;100.00;101383.19;6288632;28;20052;-78
2023/04/26 02:15:48;;;;;;;3.08;1.33;;;;;;;3.24;100.00;101379.72;6302249;28;20056;-77
2023/04/26 02:18:52;;;;;;;1.73;1.38;;;;;;;3.25;100.00;101378.00;6301569;28;20052;-78
2023/04/26 02:21:56;;;;;;;3.15;1.50;;;;;;;3.34;100.00;101375.28;6289646;28;20102;-78
2023/04/26 02:24:58;;;;;;;5.30;1.38;;;;;;;3.17;100.00;101379.81;6293485;28;20056;-78
2023/04/26 02:28:00;;;;;;;3.17;1.15;;;;;;;3.20;100.00;101387.59;6278222;28;20053;-78
2023/04/26 02:31:01;;;;;;;2.65;1.20;;;;;;;3.24;100.00;101382.34;6295515;28;20137;-77
2023/04/26 02:34:03;;;;;;;6.97;1.27;;;;;;;3.28;100.00;101377.97;6292840;28;20053;-78
2023/04/26 02:37:04;;;;;;;3.05;1.55;;;;;;;3.04;100.00;101380.00;6284766;28;20048;-78
2023/04/26 02:40:10;;;;;;;8.13;1.73;;;;;;;2.96;100.00;101386.16;6295038;28;20053;-77
2023/04/26 02:43:11;;;;;;;6.57;1.60;;;;;;;2.91;100.00;101381.00;6301222;28;20076;-78
2023/04/26 02:46:13;;;;;;;3.20;1.67;;;;;;;2.93;100.00;101394.81;6300354;28;20380;-77
2023/04/26 02:49:15;;;;;;;1.63;1.08;;;;;;;2.96;100.00;101392.19;6293483;28;20052;-78
2023/04/26 02:52:16;;;;;;;3.42;1.23;;;;;;;3.07;100.00;101391.22;6292069;28;20044;-77
2023/04/26 02:55:19;;;;;;;4.70;1.35;;;;;;;3.14;100.00;101387.66;6293350;28;20045;-77
2023/04/26 02:58:20;;;;;;;5.65;1.33;;;;;;;3.02;100.00;101389.53;6297138;28;20048;-77
2023/04/26 03:01:22;;;;;;;2.88;1.10;;;;;;;2.97;100.00;101386.13;6300852;28;20127;-77
2023/04/26 03:04:24;;;;;;;1.85;1.10;;;;;;;3.00;100.00;101382.66;6292356;28;20044;-77
2023/04/26 03:07:25;;;;;;;3.80;1.73;;;;;;;2.91;100.00;101386.22;6299767;28;20052;-77
2023/04/26 03:10:28;;;;;;;4.75;1.52;;;;;;;2.90;100.00;101381.00;6299916;28;20048;-77
2023/04/26 03:13:29;;;;;;;2.65;1.00;;;;;;;2.93;100.00;101378.38;6275884;28;20049;-78
2023/04/26 03:16:31;;;;;;;3.17;1.30;;;;;;;2.97;100.00;101380.06;6275640;28;20322;-78
2023/04/26 03:19:32;;;;;;;6.10;1.85;;;;;;;3.04;100.00;101390.38;6275200;28;20131;-78
2023/04/26 03:22:33;;;;;;;2.65;1.15;;;;;;;3.02;100.00;101388.66;6275631;28;20066;-78
2023/04/26 03:25:36;;;;;;;2.00;1.15;;;;;;;3.00;100.00;101377.44;6275604;28;20453;-78
2023/04/26 03:28:38;;;;;;;6.32;2.35;;;;;;;2.97;100.00;101382.66;6278862;28;20036;-78
2023/04/26 03:31:39;;;;;;;6.32;1.70;;;;;;;2.96;100.00;101381.81;6300621;28;20441;-77
2023/04/26 03:34:40;;;;;;;1.63;1.13;;;;;;;3.06;100.00;101379.97;6285550;28;20732;-78
2023/04/26 03:37:42;;;;;;;6.30;1.42;;;;;;;3.14;100.00;101380.75;6278471;28;20052;-78
2023/04/26 03:40:44;;;;;;;9.68;1.27;;;;;;;3.02;100.00;101386.94;6268279;28;20065;-78
2023/04/26 03:43:46;;;;;;;3.28;1.30;;;;;;;3.09;100.00;101386.84;6255009;28;20048;-77
2023/04/26 03:46:48;;;;;;;8.15;2.17;;;;;;;3.14;100.00;101388.53;6256765;28;20059;-78
2023/04/26 03:49:49;;;;;;;4.20;1.17;;;;;;;3.16;100.00;101372.91;6281446;28;20048;-78
2023/04/26 03:52:50;;;;;;;4.38;1.80;;;;;;;3.29;100.00;101375.34;6272945;28;20045;-78
2023/04/26 03:55:53;;;;;;;7.53;1.45;;;;;;;3.20;100.00;101380.66;6262160;28;20247;-77
2023/04/26 03:58:54;;;;;;;4.63;2.00;;;;;;;3.25;100.00;101388.38;6266899;28;20052;-77
2023/04/26 04:01:56;;;;;;;3.42;2.08;;;;;;;3.26;100.00;101379.69;6272108;28;20060;-77
2023/04/26 04:04:57;;;;;;;3.58;1.58;;;;;;;3.23;100.00;101387.56;6264040;28;20041;-78
2023/04/26 04:07:59;;;;;;;3.45;2.20;;;;;;;3.10;100.00;101384.25;6274077;28;20043;-76
2023/04/26 04:11:02;;;;;;;4.88;1.60;;;;;;;3.00;100.00;101385.25;6261899;28;20044;-77
2023/04/26 04:14:03;;;;;;;7.28;1.48;;;;;;;2.99;100.00;101384.34;6269388;28;20037;-78
2023/04/26 04:17:05;;;;;;;6.55;1.63;;;;;;;2.95;100.00;101382.69;6276581;28;20052;-77
2023/04/26 04:20:08;;;;;;;2.97;1.67;;;;;;;3.02;100.00;101384.34;6267736;28;20068;-78
2023/04/26 04:23:09;;;;;;;6.95;1.90;;;;;;;3.10;100.00;101392.03;6260905;28;20146;-77
2023/04/26 04:26:13;;;;;;;2.35;1.50;;;;;;;2.95;100.00;101393.09;6269036;28;20601;-77
2023/04/26 04:29:14;;;;;;;3.03;1.67;;;;;;;2.99;100.00;101401.69;6263369;28;20049;-78
2023/04/26 04:32:16;;;;;;;7.55;2.28;;;;;;;2.94;100.00;101403.47;6266660;28;20106;-77
2023/04/26 04:35:17;;;;;;;2.63;1.20;;;;;;;2.98;100.00;101392.16;6288950;28;20051;-77
2023/04/26 04:38:19;;;;;;;3.47;1.65;;;;;;;2.94;100.00;101400.88;6292563;28;20045;-78
2023/04/26 04:41:22;;;;;;;11.80;1.90;;;;;;;2.87;100.00;101402.69;6287016;28;20043;-78
2023/04/26 04:44:25;;;;;;;4.20;1.60;;;;;;;2.83;100.00;101407.94;6288380;28;20036;-77
2023/04/26 04:47:27;;;;;;;5.05;1.80;;;;;;;2.76;100.00;101405.38;6287217;28;20053;-78
2023/04/26 04:50:28;;;;;;;8.38;2.17;;;;;;;2.84;100.00;101413.09;6292089;28;20460;-78
2023/04/26 04:53:29;;;;;;;7.93;1.92;;;;;;;2.76;100.00;101407.97;6289504;28;20056;-78
2023/04/26 04:56:32;;;;;;;2.60;1.50;;;;;;;2.86;100.00;101410.47;6286274;28;20055;-77
2023/04/26 04:59:33;;;;;;;2.33;1.58;;;;;;;2.93;100.00;101407.81;6287723;28;20044;-79
2023/04/26 05:02:35;;;;;;;4.68;1.90;;;;;;;2.91;100.00;101414.75;6292586;28;20063;-79
2023/04/26 05:05:36;;;;;;;8.80;2.03;;;;;;;3.00;100.00;101403.41;6287530;28;20440;-79
2023/04/26 05:08:38;;;;;;;7.28;2.35;;;;;;;3.10;100.00;101401.56;6288778;28;20044;-79
2023/04/26 05:11:40;;;;;;;7.38;1.90;;;;;;;3.12;100.00;101402.41;6286800;28;20067;-79
2023/04/26 05:14:42;;;;;;;1.63;1.20;;;;;;;3.18;100.00;101398.00;6289341;28;20353;-79
2023/04/26 05:17:43;;;;;;;4.38;1.90;;;;;;;3.26;100.00;101405.69;6282969;28;20060;-79
2023/04/26 05:20:44;;;;;;;13.25;2.42;;;;;;;3.38;100.00;101409.88;6287288;28;20052;-79
2023/04/26 05:23:46;;;;;;;8.38;2.08;;;;;;;3.42;100.00;101404.63;6290056;28;20056;-79
2023/04/26 05:26:48;;;;;;;5.00;1.45;;;;;;;3.36;100.00;101417.69;6295006;28;20056;-79
2023/04/26 05:29:50;;;;;;;9.68;2.85;;;;;;;3.42;100.00;101417.59;6302847;28;20337;-79
2023/04/26 05:32:51;;;;;;;5.03;1.80;;;;;;;3.50;100.00;101426.16;6294969;28;20060;-79
2023/04/26 05:35:53;;;;;;;4.47;1.85;;;;;;;3.50;100.00;101427.91;6302871;28;20040;-79
2023/04/26 05:38:54;;;;;;;5.25;1.73;;;;;;;3.46;100.00;101434.03;6302905;28;20182;-79
2023/04/26 05:41:57;;;;;;;6.82;1.92;;;;;;;3.40;100.00;101424.53;6286231;28;20045;-79
2023/04/26 05:44:58;;;;;;;4.88;2.03;;;;;;;3.32;100.00;101434.19;6302822;28;20037;-79
2023/04/26 05:48:00;;;;;;;7.45;2.05;;;;;;;3.41;100.00;101431.47;6289527;28;20494;-79
2023/04/26 05:51:02;;;;;;;4.35;2.05;;;;;;;3.52;100.00;101432.19;6286330;28;20037;-79
2023/04/26 05:54:03;;;;;;;3.28;1.33;;;;;;;3.44;100.00;101430.56;6294289;28;20051;-79
2023/04/26 05:57:06;;;;;;;5.70;1.65;;;;;;;3.52;100.00;101437.38;6280127;28;20049;-79
2023/04/26 06:00:11;;;;;;;4.70;2.13;;;;;;;3.63;100.00;101433.78;6300106;28;20343;-79
2023/04/26 06:03:12;;;;;;;7.72;1.88;;;;;;;3.63;100.00;101428.56;6302003;28;20127;-79
2023/04/26 06:06:14;;;;;;;13.35;1.88;;;;;;;3.63;100.00;101438.97;6278972;28;20041;-79
2023/04/26 06:09:16;;;;;;;5.50;1.83;;;;;;;3.66;100.00;101438.94;6300799;28;20044;-78
2023/04/26 06:12:18;;;;;;;7.90;1.90;;;;;;;3.71;100.00;101447.53;6285763;28;20052;-78
2023/04/26 06:15:20;;;;;;;4.97;1.88;;;;;;;3.75;100.00;101436.22;6285065;28;20581;-79
2023/04/26 06:18:21;;;;;;;2.70;1.55;;;;;;;3.63;100.00;101441.56;6293205;28;20052;-79
2023/04/26 06:21:22;;;;;;;8.35;1.65;;;;;;;3.65;100.00;101445.88;6288071;28;20049;-79
2023/04/26 06:24:24;;;;;;;4.20;2.10;;;;;;;3.80;100.00;101432.66;6293375;28;20048;-79
2023/04/26 06:27:27;;;;;;;2.58;1.35;;;;;;;3.85;100.00;101434.34;6285081;28;20037;-79
2023/04/26 06:30:28;;;;;;;3.15;1.67;;;;;;;3.80;100.00;101443.06;6285207;28;20456;-78
2023/04/26 06:33:30;;;;;;;4.80;1.52;;;;;;;3.85;100.00;101443.00;6291066;28;20048;-78
2023/04/26 06:36:31;;;;;;;3.38;1.92;;;;;;;3.90;100.00;101448.97;6283861;28;20369;-79
2023/04/26 06:39:33;;;;;;;4.63;1.95;;;;;;;3.97;100.00;101455.81;6283017;28;20045;-78
2023/04/26 06:42:35;;;;;;;6.20;2.00;;;;;;;4.06;100.00;101450.47;6278008;28;20476;-78
2023/04/26 06:45:36;;;;;;;9.25;1.77;;;;;;;4.22;100.00;101461.50;6279966;28;20064;-78
2023/04/26 06:48:38;;;;;;;4.40;1.88;;;;;;;4.24;100.00;101456.28;6283327;28;20044;-77
2023/04/26 06:51:40;;;;;;;8.43;2.00;;;;;;;4.25;100.00;101460.59;6280495;28;20052;-78
2023/04/26 06:54:41;;;;;;;6.70;1.42;;;;;;;4.32;100.00;101470.03;6281430;28;20041;-79
2023/04/26 06:57:44;;;;;;;12.70;1.90;;;;;;;4.39;100.00;101463.84;6294475;28;20044;-78
2023/04/26 07:00:45;;;;;;;8.00;1.40;;;;;;;4.44;100.00;101468.97;6295310;28;20122;-78
2023/04/26 07:03:46;;;;;;;4.18;1.60;;;;;;;4.50;100.00;101459.34;6286306;28;20433;-78
2023/04/26 07:06:47;;;;;;;2.38;1.45;;;;;;;4.67;100.00;101458.16;6287278;28;20048;-78
2023/04/26 07:09:49;;;;;;;2.95;1.25;;;;;;;4.70;100.00;101468.53;6280961;28;20048;-78
2023/04/26 07:12:52;;;;;;;5.53;2.25;;;;;;;4.78;100.00;101464.91;6295656;28;20041;-77
2023/04/26 07:15:54;;;;;;;2.90;1.40;;;;;;;4.83;100.00;101465.69;6286448;28;20056;-77
2023/04/26 07:18:57;;;;;;;2.55;1.20;;;;;;;4.92;100.00;101466.41;6289051;28;20090;-78
2023/04/26 07:21:58;;;;;;;4.53;1.30;;;;;;;5.08;100.00;101468.69;6294226;28;20075;-78
2023/04/26 07:24:59;;;;;;;3.78;1.52;;;;;;;5.23;100.00;101472.75;6280897;28;20036;-80
2023/04/26 07:28:02;;;;;;;4.72;1.42;;;;;;;5.34;100.00;101465.56;6300040;28;20071;-78
2023/04/26 07:31:04;;;;;;;8.45;1.30;;;;;;;5.44;100.00;101478.41;6300257;28;20048;-79
2023/04/26 07:34:05;;;;;;;3.78;1.50;;;;;;;5.40;100.00;101475.00;6294687;28;20048;-77
2023/04/26 07:37:07;;;;;;;7.30;2.35;;;;;;;5.42;100.00;101475.00;6289360;28;20057;-79
2023/04/26 07:40:09;;;;;;;1.88;1.00;;;;;;;5.47;100.00;101467.94;6300135;28;20040;-79
2023/04/26 07:43:12;;;;;;;6.68;1.55;;;;;;;5.53;100.00;101483.44;6297119;28;20044;-78
2023/04/26 07:46:13;;;;;;;4.53;1.65;;;;;;;5.47;100.00;101466.19;6293504;28;20037;-78
2023/04/26 07:49:15;;;;;;;4.07;1.40;;;;;;;5.58;100.00;101468.56;6282019;28;20048;-80
2023/04/26 07:52:16;;;;;;;3.00;1.27;;;;;;;5.63;100.00;101471.91;6298448;28;20053;-81
2023/04/26 07:55:17;;;;;;;1.67;1.38;;;;;;;5.60;100.00;101469.41;6291575;28;20429;-80
2023/04/26 07:58:20;;;;;;;4.00;1.55;;;;;;;5.72;100.00;101461.31;6299829;28;20455;-78
2023/04/26 08:01:21;;;;;;;4.40;1.35;;;;;;;5.82;100.00;101475.88;6288857;28;20423;-79
2023/04/26 08:04:31;;;;;;;10.18;2.30;;;;;;;5.86;100.00;101468.84;6282758;28;20040;-80
2023/04/26 08:07:32;;;;;;;4.88;1.35;;;;;;;5.93;100.00;101464.38;6283064;28;20068;-79
2023/04/26 08:10:34;;;;;;;4.07;1.17;;;;;;;6.06;100.00;101476.25;6281519;28;20127;-78
2023/04/26 08:13:36;;;;;;;5.85;1.65;;;;;;;6.21;99.44;101478.47;6295171;28;20041;-79
2023/04/26 08:16:38;;;;;;;4.88;1.40;;;;;;;6.33;90.77;101477.34;6283325;28;20049;-78
2023/04/26 08:19:40;;;;;;;4.57;0.80;;;;;;;6.35;93.60;101473.78;6301001;28;20045;-80
2023/04/26 08:22:41;;;;;;;4.10;1.33;;;;;;;6.38;88.04;101472.03;6296710;28;20045;-80
2023/04/26 08:25:42;;;;;;;5.55;0.90;;;;;;;6.50;87.09;101471.72;6294772;28;20055;-79
2023/04/26 08:28:45;;;;;;;2.10;0.95;;;;;;;6.78;87.34;101477.97;6290162;28;20079;-82
2023/04/26 08:31:46;;;;;;;7.03;0.93;;;;;;;6.80;86.82;101470.06;6295692;28;20187;-78
2023/04/26 08:34:48;;;;;;;2.83;0.90;;;;;;;6.88;87.13;101473.34;6304323;28;20321;-78
2023/04/26 08:37:50;;;;;;;3.05;1.25;;;;;;;7.02;86.70;101478.19;6303983;28;20194;-78
2023/04/26 08:40:51;;;;;;;7.70;0.85;;;;;;;6.94;86.52;101483.63;6295969;28;20045;-79
2023/04/26 08:43:57;;;;;;;9.43;0.90;;;;;;;6.91;87.04;101483.72;6297991;28;20045;-78
2023/04/26 08:47:03;;;;;;;2.00;1.00;;;;;;;6.87;83.59;101482.09;6293082;28;20037;-79
2023/04/26 08:50:06;;;;;;;2.65;1.38;;;;;;;6.97;83.48;101480.94;6292131;28;20045;-79
2023/04/26 08:53:08;;;;;;;2.90;1.30;;;;;;;7.01;83.19;101479.97;6294269;28;20053;-79
2023/04/26 08:56:11;;;;;;;1.58;0.90;;;;;;;7.04;85.97;101482.50;6291962;28;20421;-79
2023/04/26 08:59:15;;;;;;;3.83;1.50;;;;;;;7.08;86.20;101484.09;6290995;28;20064;-78
2023/04/26 09:02:18;;;;;;;5.05;1.80;;;;;;;7.04;82.01;101487.72;6289139;28;20041;-77
2023/04/26 09:05:22;;;;;;;3.15;1.15;;;;;;;7.01;82.37;101489.56;6290998;28;20052;-80
2023/04/26 09:08:24;;;;;;;3.58;1.45;;;;;;;7.08;81.46;101485.88;6300164;28;20500;-78
2023/04/26 09:11:25;;;;;;;6.97;1.05;;;;;;;7.17;81.02;101488.22;6292939;28;20054;-78
2023/04/26 09:14:28;;;;;;;3.67;1.02;;;;;;;7.18;81.54;101482.13;6303070;28;20041;-79
2023/04/26 09:17:31;;;;;;;4.68;1.40;;;;;;;7.20;81.16;101487.31;6278734;28;20110;-80
2023/04/26 09:20:33;;;;;;;2.83;1.15;;;;;;;7.08;80.28;101491.94;6286203;28;20044;-81
2023/04/26 09:23:35;;;;;;;2.80;1.15;;;;;;;7.03;78.29;101490.38;6294750;28;20045;-79
2023/04/26 09:26:37;;;;;;;2.45;1.25;;;;;;;7.19;78.73;101485.59;6293099;28;20124;-79
2023/04/26 09:29:39;;;;;;;3.33;1.05;;;;;;;7.17;77.51;101484.75;6294597;28;20040;-77
2023/04/26 09:33:02;;;;;;;3.40;1.10;;;;;;;7.32;76.95;101489.59;6280677;28;20056;-79
2023/04/26 09:36:12;;;;;;;7.88;1.42;;;;;;;7.44;76.27;101490.97;6290633;28;20079;-80
2023/04/26 09:39:13;;;;;;;8.20;1.65;;;;;;;7.60;74.85;101481.81;6286666;28;20119;-80
2023/04/26 09:42:17;;;;;;;1.23;1.00;;;;;;;7.57;72.67;101481.88;6301294;28;20059;-82
2023/04/26 09:45:20;;;;;;;1.27;0.98;;;;;;;7.67;75.43;101491.16;6302705;28;20340;-80
2023/04/26 09:48:24;;;;;;;6.32;1.10;;;;;;;7.70;71.89;101491.09;6286512;28;20250;-80
2023/04/26 09:51:27;;;;;;;4.85;1.20;;;;;;;7.70;72.26;101479.78;6293058;28;20063;-80
2023/04/26 09:54:42;;;;;;;2.63;1.08;;;;;;;7.78;74.82;101490.88;6301961;28;20044;-80
2023/04/26 09:57:44;;;;;;;6.65;1.98;;;;;;;7.87;74.31;101488.84;6296799;28;20186;-80
2023/04/26 10:00:50;;;;;;;8.52;1.50;;;;;;;7.87;73.89;101486.22;6302305;28;20395;-80
2023/04/26 10:03:52;;;;;;;4.38;0.90;;;;;;;7.84;71.56;101480.22;6302361;28;20048;-80
2023/04/26 10:06:54;;;;;;;4.13;1.08;;;;;;;7.67;73.28;101493.78;6301803;28;20040;-82
2023/04/26 10:09:58;;;;;;;4.60;1.23;;;;;;;7.75;72.96;101501.44;6301985;28;20045;-81
2023/04/26 10:13:00;;;;;;;4.88;0.90;;;;;;;7.88;73.17;101490.53;6280866;28;20053;-80
2023/04/26 10:16:03;;;;;;;3.90;1.00;;;;;;;7.84;70.41;101488.91;6290798;28;20040;-80
2023/04/26 10:19:05;;;;;;;2.55;1.13;;;;;;;7.99;74.17;101482.34;6279708;28;20369;-80
2023/04/26 10:22:11;;;;;;;10.10;1.10;;;;;;;8.00;69.49;101472.78;6295260;28;20055;-80
2023/04/26 10:25:13;;;;;;;1.63;0.70;;;;;;;8.04;70.49;101474.38;6302049;28;20052;-80
2023/04/26 10:28:14;;;;;;;3.97;1.30;;;;;;;8.03;70.45;101480.50;6301330;28;20055;-80
2023/04/26 10:31:17;;;;;;;2.10;1.17;;;;;;;7.98;66.44;101469.31;6300538;28;20045;-79
2023/04/26 10:34:19;;;;;;;2.38;1.17;;;;;;;8.11;66.88;101473.28;6294223;28;20048;-81
2023/04/26 10:37:21;;;;;;;2.97;1.10;;;;;;;8.20;68.23;101473.00;6279284;28;20041;-80
2023/04/26 10:40:24;;;;;;;1.65;0.88;;;;;;;8.24;68.98;101455.44;6286913;28;20360;-80
2023/04/26 10:43:29;;;;;;;8.60;1.05;;;;;;;8.29;65.08;101459.59;6276650;28;20060;-81
2023/04/26 10:46:37;;;;;;;2.22;1.30;;;;;;;8.26;66.85;101462.31;6275704;28;20047;-80
2023/04/26 10:49:48;;;;;;;1.63;0.85;;;;;;;8.37;67.64;101459.41;6280188;28;20131;-80
2023/04/26 10:53:05;;;;;;;1.23;0.82;;;;;;;8.36;63.59;101469.00;6286364;28;20067;-81
2023/04/26 10:56:07;;;;;;;2.15;0.95;;;;;;;8.33;63.05;101458.59;6280209;28;20051;-80
2023/04/26 10:59:10;;;;;;;3.08;1.08;;;;;;;8.36;62.71;101450.69;6293774;28;20045;-81
2023/04/26 11:02:13;;;;;;;2.22;0.90;;;;;;;8.47;62.43;101455.56;6277894;28;20053;-79
2023/04/26 11:05:41;;;;;;;3.08;1.27;;;;;;;8.47;62.06;101446.84;6297306;28;20044;-80
2023/04/26 11:08:42;;;;;;;5.20;1.00;;;;;;;8.35;62.37;101454.16;6292489;28;20052;-79
2023/04/26 11:11:52;;;;;;;2.05;0.98;;;;;;;8.35;64.90;101462.00;6299333;28;20056;-80
2023/04/26 11:14:54;;;;;;;;;;;;;;;8.32;63.98;101453.41;6284105;28;20044;-75
2023/04/26 11:17:57;;;;;;;5.18;2.95;;;;;;;8.40;64.08;101456.66;6282104;28;19921;-79
2023/04/26 11:20:59;;;;;;;10.55;1.75;;;;;;;8.52;64.13;101453.63;6288288;28;20432;-79
2023/04/26 11:24:01;;;;;;;2.60;1.45;;;;;;;8.63;61.84;101441.03;6279436;28;20057;-79
2023/04/26 11:27:08;;;;;;;1.77;1.30;;;;;;;8.60;62.72;101453.38;6291877;28;20041;-80
2023/04/26 11:30:11;;;;;;;2.80;0.93;;;;;;;8.59;63.15;101456.91;6296665;28;20055;-79
2023/04/26 11:33:18;;;;;;;3.38;2.00;;;;;;;8.51;65.19;101451.94;6284469;28;20630;-79
2023/04/26 11:36:20;;;;;;;6.88;1.55;;;;;;;8.54;62.78;101458.81;6292222;28;20052;-80
2023/04/26 11:39:22;;;;;;;1.20;0.90;;;;;;;8.46;59.65;101456.47;6284256;28;20127;-79
2023/04/26 11:42:25;;;;;;;3.83;1.60;;;;;;;8.43;61.40;101461.81;6291301;28;20129;-80
2023/04/26 11:45:26;;;;;;;2.55;1.60;;;;;;;8.34;63.28;101465.53;6283867;28;20057;-79
2023/04/26 11:48:30;;;;;;;2.30;1.20;;;;;;;8.28;63.25;101457.03;6291411;28;20472;-80
2023/04/26 11:51:32;;;;;;;3.72;1.60;;;;;;;8.28;64.45;101457.91;6285769;28;20048;-80
2023/04/26 11:54:36;;;;;;;2.83;1.35;;;;;;;8.20;66.68;101474.75;6279089;28;20075;-79
2023/04/26 11:57:38;;;;;;;2.85;1.25;;;;;;;8.19;66.71;101473.03;6282850;28;20044;-79
2023/04/26 12:00:57;;;;;;;2.05;1.13;;;;;;;8.08;68.22;101474.25;6288574;28;20059;-80
2023/04/26 12:04:00;;;;;;;4.07;2.13;;;;;;;8.12;71.59;101478.44;6288280;28;20048;-80
2023/04/26 12:07:04;;;;;;;4.82;1.55;;;;;;;8.06;71.81;101480.41;6284152;28;20044;-79
2023/04/26 12:10:15;;;;;;;2.55;1.13;;;;;;;8.04;72.98;101479.59;6285006;28;20062;-79
2023/04/26 12:13:16;;;;;;;6.85;1.73;;;;;;;8.10;74.00;101488.13;6283056;28;20045;-79
2023/04/26 12:16:17;;;;;;;3.92;1.73;;;;;;;8.08;73.70;101483.84;6284128;28;20041;-79
2023/04/26 12:19:23;;;;;;;8.00;2.20;;;;;;;8.18;74.29;101484.44;6275079;28;20361;-79
2023/04/26 12:22:24;;;;;;;3.83;1.33;;;;;;;8.22;71.41;101491.25;6283031;28;20040;-81
2023/04/26 12:25:26;;;;;;;1.65;1.10;;;;;;;8.23;68.57;101486.00;6286217;28;20130;-80
2023/04/26 12:28:27;;;;;;;1.52;1.35;;;;;;;8.29;69.20;101484.94;6276489;28;20045;-79
2023/04/26 12:31:28;;;;;;;2.28;0.90;;;;;;;8.69;69.54;101483.66;6282717;28;20052;-80
2023/04/26 12:34:31;;;;;;;1.98;1.42;;;;;;;9.07;68.52;101483.19;6285641;28;20044;-80
2023/04/26 12:37:33;;;;;;;1.77;1.10;;;;;;;9.61;72.29;101473.38;6278528;28;20041;-79
2023/04/26 12:40:36;;;;;;;1.75;1.27;;;;;;;9.91;62.90;101471.34;6298215;28;20054;-80
2023/04/26 12:43:37;;;;;;;1.98;1.10;;;;;;;10.02;63.11;101470.91;6291103;28;20044;-79
2023/04/26 12:46:38;;;;;;;2.00;0.90;;;;;;;10.34;57.59;101469.66;6282495;28;20345;-80
2023/04/26 12:49:41;;;;;;;3.72;1.42;;;;;;;10.11;56.12;101462.69;6285797;28;20040;-80
2023/04/26 12:52:44;;;;;;;4.28;1.45;;;;;;;9.66;57.74;101472.28;6282224;28;20396;-79
2023/04/26 12:55:45;;;;;;;4.88;1.30;;;;;;;9.40;58.50;101480.25;6294715;28;20056;-80
2023/04/26 12:58:47;;;;;;;1.60;1.10;;;;;;;9.25;59.39;101475.56;6289911;28;20338;-80
2023/04/26 13:01:48;;;;;;;2.72;1.33;;;;;;;9.04;61.48;101472.81;6293050;28;20056;-84
2023/04/26 13:04:51;;;;;;;2.25;1.33;;;;;;;8.98;63.03;101475.66;6293875;28;20040;-81
2023/04/26 13:07:52;;;;;;;5.95;2.85;;;;;;;8.89;62.46;101473.34;6289438;28;20041;-80
2023/04/26 13:10:53;;;;;;;6.18;1.45;;;;;;;8.80;64.25;101478.91;6285923;28;20559;-80
2023/04/26 13:13:55;;;;;;;5.60;2.25;;;;;;;8.82;65.24;101480.56;6277238;28;20045;-80
2023/04/26 13:16:56;;;;;;;1.75;1.17;;;;;;;8.78;66.39;101485.97;6289990;28;20059;-81
2023/04/26 13:19:59;;;;;;;4.07;1.17;;;;;;;8.71;66.61;101487.94;6301324;28;20047;-82
2023/04/26 13:23:00;;;;;;;2.40;1.50;;;;;;;8.63;66.16;101482.13;6303249;28;20056;-81
2023/04/26 13:26:02;;;;;;;7.10;1.45;;;;;;;8.65;67.61;101485.53;6302126;28;20068;-81
2023/04/26 13:29:03;;;;;;;3.25;1.27;;;;;;;8.70;68.44;101480.97;6298295;28;20052;-81
2023/04/26 13:32:05;;;;;;;1.95;1.40;;;;;;;8.81;67.61;101484.13;6291947;28;20051;-82
2023/04/26 13:35:08;;;;;;;2.60;1.35;;;;;;;8.71;67.40;101481.84;6297453;28;20044;-80
2023/04/26 13:38:10;;;;;;;3.22;1.65;;;;;;;8.72;66.24;101483.53;6278094;28;20044;-81
2023/04/26 13:41:12;;;;;;;2.75;1.60;;;;;;;8.73;66.16;101485.28;6278196;28;20130;-80
2023/04/26 13:44:14;;;;;;;6.35;1.35;;;;;;;8.78;66.79;101491.22;6294760;28;20045;-80
2023/04/26 13:47:16;;;;;;;4.38;1.30;;;;;;;8.74;66.40;101493.06;6294430;28;20041;-81
2023/04/26 13:50:19;;;;;;;3.72;1.48;;;;;;;8.83;69.67;101495.38;6289155;28;20349;-80
2023/04/26 13:53:20;;;;;;;2.63;1.38;;;;;;;8.98;65.73;101501.00;6294328;28;20197;-80
2023/04/26 13:56:22;;;;;;;8.20;2.60;;;;;;;9.09;66.08;101502.34;6299735;28;20040;-86
2023/04/26 13:59:23;;;;;;;6.70;1.60;;;;;;;9.21;63.66;101494.94;6300820;28;20044;-79
2023/04/26 14:02:25;;;;;;;2.67;1.27;;;;;;;9.25;62.44;101494.78;6294666;28;20049;-79
2023/04/26 14:05:27;;;;;;;2.03;1.20;;;;;;;9.28;64.31;101510.44;6281507;28;20048;-80
2023/04/26 14:08:29;;;;;;;2.85;2.10;;;;;;;9.33;64.07;101505.03;6281881;28;20052;-81
2023/04/26 14:11:31;;;;;;;2.70;1.30;;;;;;;9.26;64.92;101499.13;6277543;28;20053;-80
2023/04/26 14:14:32;;;;;;;3.25;1.70;;;;;;;9.16;63.30;101497.75;6282170;28;20048;-80